Earendil — FAE4542 — position and weather

sailwx.info

Track history (hours):
 
Tides and Currents Weather Stations Pressure Air Temp Water Temp Dewpoint Dewpoint Depression Visibility Wind Speed Wind Dir Waves Ship Positions

Earendil

Last reported at 2017-Aug-16 12:42 UTC. Time now 2017-Sep-25 15:02 UTC.
Position N 48°39' W 002°49'.
Warning: this ship's position is 40 days out of date.

Length 13 m.

Type: Sailing vessel. MMSI: 227477470.

Date/timePositionNaut miles runAvg speedWind from/ knotsBaromVisibWave heightAir tempDewpointWater temp
2017-Aug-16 12:42N 48°39' W 002°49'1 6.6
2017-Aug-16 12:30N 48°41' W 002°49'3 6.9
2017-Aug-16 12:00N 48°44' W 002°50'3 6.5
2017-Aug-16 11:30N 48°47' W 002°50'3 6.9
2017-Aug-16 11:00N 48°51' W 002°50'5 6.2
2017-Aug-16 10:13N 48°55' W 002°53'2 9.1
2017-Aug-16 10:00N 48°55' W 002°56'72 1.8
2017-Aug-14 18:14N 48°37' W 004°41'2 7.0
2017-Aug-14 17:53N 48°36' W 004°44'3 7.4
2017-Aug-14 17:30N 48°34' W 004°47'4 7.3
2017-Aug-14 17:00N 48°31' W 004°49'3 6.8
2017-Aug-14 16:30N 48°27' W 004°50'5 7.3
2017-Aug-14 15:53N 48°23' W 004°49'4 8.1
2017-Aug-14 15:27N 48°19' W 004°48'3 6.6
2017-Aug-14 15:01N 48°17' W 004°47'3 5.9
2017-Aug-14 14:30N 48°14' W 004°46'3 5.3
2017-Aug-14 14:00N 48°11' W 004°46'3 5.2
2017-Aug-14 13:30N 48°08' W 004°46'2 4.9
2017-Aug-14 13:00N 48°06' W 004°46'3 5.5
2017-Aug-14 12:30N 48°03' W 004°46'3 5.5
2017-Aug-14 12:00N 48°01' W 004°43'48 1.0
2017-Aug-12 10:17N 47°41' W 003°38'3 6.0
2017-Aug-12 09:43N 47°39' W 003°35'2 5.2
2017-Aug-12 09:15N 47°40' W 003°32'1 5.6
2017-Aug-12 09:00N 47°42' W 003°31'2 3.2
2017-Aug-12 08:30N 47°42' W 003°29'3 5.6
2017-Aug-12 08:00N 47°40' W 003°26'2 4.5
2017-Aug-12 07:30N 47°41' W 003°24'  
2017-Aug-08 13:56N 47°43' W 003°22'1 1.8
2017-Aug-08 13:30N 47°42' W 003°22'2 4.8
2017-Aug-08 13:00N 47°40' W 003°23'3 5.1
2017-Aug-08 12:30N 47°38' W 003°24'2 3.6
2017-Aug-08 12:00N 47°36' W 003°23'4 7.5
2017-Aug-08 11:30N 47°33' W 003°21'10 6.9
2017-Aug-08 10:06N 47°23' W 003°20'0 5.2
2017-Aug-08 10:00N 47°22' W 003°19'  
Track history (hours):
 
Tides and Currents Weather Stations Pressure Air Temp Water Temp Dewpoint Dewpoint Depression Visibility Wind Speed Wind Dir Waves Ship Positions

Earendil

Last reported at 2017-Aug-16 12:42 UTC. Time now 2017-Sep-25 15:02 UTC.
Position N 48°39' W 002°49'.
Warning: this ship's position is 40 days out of date.

Length 13 m.

Type: Sailing vessel. MMSI: 227477470.

Date/timePositionNaut miles runAvg speedWind from/ knotsBaromVisibWave heightAir tempDewpointWater temp
2017-Aug-16 12:42N 48°39' W 002°49'1 6.6
2017-Aug-16 12:30N 48°41' W 002°49'3 6.9
2017-Aug-16 12:00N 48°44' W 002°50'3 6.5
2017-Aug-16 11:30N 48°47' W 002°50'3 6.9
2017-Aug-16 11:00N 48°51' W 002°50'5 6.2
2017-Aug-16 10:13N 48°55' W 002°53'2 9.1
2017-Aug-16 10:00N 48°55' W 002°56'72 1.8
2017-Aug-14 18:14N 48°37' W 004°41'2 7.0
2017-Aug-14 17:53N 48°36' W 004°44'3 7.4
2017-Aug-14 17:30N 48°34' W 004°47'4 7.3
2017-Aug-14 17:00N 48°31' W 004°49'3 6.8
2017-Aug-14 16:30N 48°27' W 004°50'5 7.3
2017-Aug-14 15:53N 48°23' W 004°49'4 8.1
2017-Aug-14 15:27N 48°19' W 004°48'3 6.6
2017-Aug-14 15:01N 48°17' W 004°47'3 5.9
2017-Aug-14 14:30N 48°14' W 004°46'3 5.3
2017-Aug-14 14:00N 48°11' W 004°46'3 5.2
2017-Aug-14 13:30N 48°08' W 004°46'2 4.9
2017-Aug-14 13:00N 48°06' W 004°46'3 5.5
2017-Aug-14 12:30N 48°03' W 004°46'3 5.5
2017-Aug-14 12:00N 48°01' W 004°43'48 1.0
2017-Aug-12 10:17N 47°41' W 003°38'3 6.0
2017-Aug-12 09:43N 47°39' W 003°35'2 5.2
2017-Aug-12 09:15N 47°40' W 003°32'1 5.6
2017-Aug-12 09:00N 47°42' W 003°31'2 3.2
2017-Aug-12 08:30N 47°42' W 003°29'3 5.6
2017-Aug-12 08:00N 47°40' W 003°26'2 4.5
2017-Aug-12 07:30N 47°41' W 003°24'  
2017-Aug-08 13:56N 47°43' W 003°22'1 1.8
2017-Aug-08 13:30N 47°42' W 003°22'2 4.8
2017-Aug-08 13:00N 47°40' W 003°23'3 5.1
2017-Aug-08 12:30N 47°38' W 003°24'2 3.6
2017-Aug-08 12:00N 47°36' W 003°23'4 7.5
2017-Aug-08 11:30N 47°33' W 003°21'10 6.9
2017-Aug-08 10:06N 47°23' W 003°20'0 5.2
2017-Aug-08 10:00N 47°22' W 003°19'  

Dump ship's entire track history